Time;durP1;ratioP1;P1;durP2;ratioP2;P2;SDS_P1;SDS_P2;PMS_P1;PMS_P2;Temp;Humidity;BMP_temperature;BMP_pressure;BME280_temperature;BME280_humidity;BME280_pressure;Samples;Min_cycle;Max_cycle;Signal;HPM_P1;HPM_P2
2023/06/24 00:01:48;;;;;;;32.92;21.20;;;;;;;14.01;100.00;99580.97;15262915;19;20463;-48
2023/06/24 00:07:13;;;;;;;32.42;20.70;;;;;;;13.99;100.00;99582.97;15279361;19;20018;-51
2023/06/24 00:12:41;;;;;;;30.85;19.10;;;;;;;13.94;100.00;99596.13;15282104;19;20070;-50
2023/06/24 00:18:09;;;;;;;29.00;17.58;;;;;;;13.89;100.00;99587.63;15276386;19;20023;-52
2023/06/24 00:23:34;;;;;;;26.88;19.17;;;;;;;13.84;100.00;99588.09;15280098;19;20014;-54
2023/06/24 00:29:02;;;;;;;32.13;20.10;;;;;;;13.80;100.00;99582.13;15277466;19;20049;-51
2023/06/24 00:34:27;;;;;;;32.75;21.38;;;;;;;13.76;100.00;99578.03;15277473;19;20362;-53
2023/06/24 00:39:53;;;;;;;32.45;20.85;;;;;;;13.74;100.00;99580.03;15271685;19;20559;-51
2023/06/24 00:45:20;;;;;;;34.97;20.98;;;;;;;13.69;100.00;99587.78;15275361;19;20025;-50
2023/06/24 00:50:45;;;;;;;36.67;19.58;;;;;;;13.63;100.00;99580.25;15278728;19;20035;-52
2023/06/24 00:56:13;;;;;;;47.50;24.98;;;;;;;13.54;100.00;99569.34;15276427;19;20022;-48
2023/06/24 01:01:44;;;;;;;44.28;25.85;;;;;;;13.51;100.00;99561.50;15273880;19;20014;-50
2023/06/24 01:07:10;;;;;;;42.55;25.45;;;;;;;13.49;100.00;99571.63;15275247;19;20436;-48
2023/06/24 01:12:34;;;;;;;41.80;25.17;;;;;;;13.48;100.00;99574.50;15270107;19;20014;-52
2023/06/24 01:18:10;;;;;;;43.00;25.77;;;;;;;13.43;100.00;99572.25;15271598;19;20431;-52
2023/06/24 01:24:13;;;;;;;51.75;28.02;;;;;;;13.41;100.00;99569.69;15276184;19;20459;-52
2023/06/24 01:29:54;;;;;;;73.53;33.95;;;;;;;13.38;100.00;99569.09;15272096;19;20010;-48
2023/06/24 01:35:28;;;;;;;44.78;27.38;;;;;;;13.37;100.00;99560.16;15270979;19;20025;-51
2023/06/24 01:41:00;;;;;;;42.95;25.98;;;;;;;13.37;100.00;99556.56;15273331;19;20003;-51
2023/06/24 01:46:31;;;;;;;670.07;40.97;;;;;;;13.36;100.00;99561.16;15269032;19;20103;-49
2023/06/24 01:52:02;;;;;;;862.78;49.38;;;;;;;13.37;100.00;99548.44;15271919;19;20013;-46
2023/06/24 01:57:30;;;;;;;613.45;38.30;;;;;;;13.34;100.00;99536.09;15272755;19;20022;-50
2023/06/24 02:02:57;;;;;;;742.15;36.33;;;;;;;13.33;100.00;99538.94;15268469;19;20010;-51
2023/06/24 02:08:26;;;;;;;499.90;28.33;;;;;;;13.29;100.00;99538.38;15210602;19;20017;-47
2023/06/24 02:13:52;;;;;;;592.97;32.72;;;;;;;13.23;100.00;99523.59;15271531;19;20370;-50
2023/06/24 02:19:18;;;;;;;457.83;25.40;;;;;;;13.21;100.00;99531.03;15267935;19;20022;-48
2023/06/24 02:24:47;;;;;;;198.98;21.02;;;;;;;13.20;100.00;99526.63;15270546;19;20377;-48
2023/06/24 02:30:14;;;;;;;331.73;19.70;;;;;;;13.20;100.00;99533.88;15267574;19;20018;-47
2023/06/24 02:35:41;;;;;;;195.52;16.92;;;;;;;13.18;100.00;99517.81;15269618;19;20021;-49
2023/06/24 02:41:09;;;;;;;322.90;21.90;;;;;;;13.15;100.00;99520.81;15268632;19;20043;-49
2023/06/24 02:46:36;;;;;;;192.23;13.30;;;;;;;13.09;100.00;99516.00;15269008;19;20039;-49
2023/06/24 02:52:00;;;;;;;78.47;12.90;;;;;;;13.05;100.00;99514.59;15275008;19;20015;-46
2023/06/24 02:57:28;;;;;;;76.15;11.18;;;;;;;13.00;100.00;99525.88;15279900;19;20366;-49
2023/06/24 03:03:14;;;;;;;58.95;13.38;;;;;;;12.95;100.00;99529.03;15275068;19;20402;-50
2023/06/24 03:08:40;;;;;;;164.25;14.65;;;;;;;12.90;100.00;99534.00;15273617;19;20415;-50
2023/06/24 03:14:16;;;;;;;225.75;15.55;;;;;;;12.87;100.00;99538.88;15276716;19;20595;-51
2023/06/24 03:19:47;;;;;;;113.82;14.95;;;;;;;12.88;100.00;99552.25;15267745;19;20074;-49
2023/06/24 03:25:11;;;;;;;122.15;11.57;;;;;;;12.87;100.00;99558.69;15271347;19;20089;-51
2023/06/24 03:30:39;;;;;;;178.48;13.75;;;;;;;12.83;100.00;99554.56;15271027;19;20014;-51
2023/06/24 03:36:05;;;;;;;107.55;10.20;;;;;;;12.79;100.00;99556.72;15267664;19;20360;-52
2023/06/24 03:41:30;;;;;;;349.23;17.15;;;;;;;12.77;100.00;99564.13;15275425;19;20086;-52
2023/06/24 03:46:58;;;;;;;300.65;14.52;;;;;;;12.75;100.00;99570.69;15281677;19;20034;-53
2023/06/24 03:52:26;;;;;;;417.40;18.00;;;;;;;12.72;100.00;99573.66;15279152;19;20039;-52
2023/06/24 03:57:50;;;;;;;560.95;20.08;;;;;;;12.71;100.00;99575.50;15281057;19;20018;-52
2023/06/24 04:03:19;;;;;;;271.88;14.65;;;;;;;12.76;100.00;99580.47;15275894;19;20471;-50
2023/06/24 04:08:48;;;;;;;178.57;13.38;;;;;;;12.81;100.00;99591.72;15278829;19;20360;-50
2023/06/24 04:14:13;;;;;;;75.95;11.60;;;;;;;12.86;100.00;99599.38;15281498;19;20051;-52
2023/06/24 04:19:47;;;;;;;174.63;13.98;;;;;;;12.90;100.00;99598.94;15278447;19;20022;-52
2023/06/24 04:25:12;;;;;;;144.75;13.80;;;;;;;12.89;100.00;99599.94;15275295;19;20018;-54
2023/06/24 04:30:38;;;;;;;31.52;11.77;;;;;;;12.91;100.00;99606.06;15283577;19;20042;-53
2023/06/24 04:36:07;;;;;;;16.83;11.65;;;;;;;12.97;100.00;99617.28;15277587;19;20027;-49
2023/06/24 04:41:32;;;;;;;16.42;11.15;;;;;;;13.05;100.00;99634.47;15277842;19;20010;-49
2023/06/24 04:46:57;;;;;;;16.50;10.57;;;;;;;13.15;100.00;99642.56;15276647;19;20672;-48
2023/06/24 04:52:25;;;;;;;16.40;11.68;;;;;;;13.24;100.00;99649.78;15278171;19;20423;-47
2023/06/24 04:57:50;;;;;;;13.38;11.18;;;;;;;13.31;100.00;99654.63;15269486;19;21149;-47
2023/06/24 05:03:15;;;;;;;15.80;12.15;;;;;;;13.36;100.00;99658.59;15273256;19;20345;-49
2023/06/24 05:08:42;;;;;;;18.05;12.70;;;;;;;13.44;100.00;99668.72;15271012;19;20010;-50
2023/06/24 05:14:07;;;;;;;18.60;13.15;;;;;;;13.51;100.00;99675.22;15275770;19;20324;-47
2023/06/24 05:19:38;;;;;;;18.13;13.70;;;;;;;13.57;100.00;99687.31;15272607;19;20013;-48
2023/06/24 05:25:05;;;;;;;18.77;14.85;;;;;;;13.69;100.00;99696.09;15275195;19;20006;-50
2023/06/24 05:30:30;;;;;;;22.65;16.13;;;;;;;13.78;100.00;99705.16;15271525;19;20457;-48
2023/06/24 05:35:55;;;;;;;24.23;16.90;;;;;;;13.90;100.00;99708.53;15272102;19;20028;-49
2023/06/24 05:41:22;;;;;;;27.08;19.63;;;;;;;14.02;100.00;99715.47;15271034;19;20006;-51
2023/06/24 05:46:46;;;;;;;26.30;19.45;;;;;;;14.20;100.00;99711.91;15268509;19;20610;-51
2023/06/24 05:52:12;;;;;;;24.55;18.98;;;;;;;14.37;100.00;99716.50;15272315;19;20692;-52
2023/06/24 05:57:39;;;;;;;24.65;18.23;;;;;;;14.56;100.00;99725.50;15270215;19;20754;-52
2023/06/24 06:03:04;;;;;;;22.88;16.77;;;;;;;14.76;100.00;99732.47;15259022;19;20011;-52
2023/06/24 06:08:30;;;;;;;18.55;15.63;;;;;;;14.98;100.00;99738.44;15271725;19;20381;-48
2023/06/24 06:13:57;;;;;;;11.65;8.57;;;;;;;15.09;100.00;99756.34;15270887;19;20074;-48
2023/06/24 06:19:21;;;;;;;9.00;5.82;;;;;;;15.09;100.00;99743.63;15268623;19;20014;-47
2023/06/24 06:24:46;;;;;;;9.07;5.72;;;;;;;15.13;100.00;99725.16;15266503;19;20577;-48
2023/06/24 06:30:16;;;;;;;8.88;5.82;;;;;;;15.02;100.00;99684.72;15268001;19;20373;-52
2023/06/24 06:35:41;;;;;;;8.90;6.05;;;;;;;15.15;100.00;99641.69;15266946;19;20027;-50
2023/06/24 06:41:10;;;;;;;11.50;7.07;;;;;;;15.23;100.00;99639.03;15270615;19;20013;-48
2023/06/24 06:46:39;;;;;;;6.07;5.03;;;;;;;15.11;100.00;99567.03;15267346;19;20346;-51
2023/06/24 06:52:05;;;;;;;10.10;6.05;;;;;;;15.19;100.00;99511.91;15269043;19;20003;-50
2023/06/24 06:57:34;;;;;;;6.45;4.82;;;;;;;15.20;100.00;99489.19;15268251;19;20359;-50
2023/06/24 07:03:03;;;;;;;5.53;3.97;;;;;;;15.15;100.00;99456.25;15263365;19;20082;-47
2023/06/24 07:08:27;;;;;;;6.03;3.65;;;;;;;15.29;100.00;99444.75;15262760;19;20030;-47
2023/06/24 07:13:52;;;;;;;5.75;4.13;;;;;;;15.49;100.00;99458.88;15268618;19;20024;-48
2023/06/24 07:19:20;;;;;;;5.75;3.30;;;;;;;15.63;100.00;99454.63;15265381;19;20022;-49
2023/06/24 07:24:45;;;;;;;5.03;3.30;;;;;;;15.80;100.00;99479.13;15262665;19;20027;-48
2023/06/24 07:30:09;;;;;;;4.60;3.10;;;;;;;15.95;100.00;99450.25;15266399;19;20015;-46
2023/06/24 07:35:39;;;;;;;3.95;3.10;;;;;;;16.01;100.00;99421.53;15263500;19;20029;-48
2023/06/24 07:41:05;;;;;;;3.60;2.83;;;;;;;16.06;100.00;99404.69;15255752;19;20477;-46
2023/06/24 07:46:30;;;;;;;3.88;2.40;;;;;;;16.14;100.00;99369.38;15261593;19;20018;-52
2023/06/24 07:51:57;;;;;;;4.78;2.60;;;;;;;16.30;100.00;99377.47;15265844;19;20031;-51
2023/06/24 07:57:21;;;;;;;4.50;2.50;;;;;;;16.35;100.00;99378.81;15263986;19;20464;-51
2023/06/24 08:02:46;;;;;;;5.78;2.88;;;;;;;16.47;100.00;99393.72;15263356;19;20339;-47
2023/06/24 08:08:13;;;;;;;3.38;2.58;;;;;;;16.48;100.00;99392.72;15262551;19;20015;-47
2023/06/24 08:13:38;;;;;;;5.25;2.22;;;;;;;16.60;100.00;99385.88;15264026;19;20018;-47
2023/06/24 08:19:02;;;;;;;2.25;2.00;;;;;;;16.63;100.00;99349.28;15260903;19;20029;-48
2023/06/24 08:24:30;;;;;;;2.67;1.98;;;;;;;16.78;100.00;99352.94;15257830;19;20096;-49
2023/06/24 08:30:11;;;;;;;3.70;1.77;;;;;;;16.86;100.00;99327.56;15275226;19;20349;-47
2023/06/24 08:35:35;;;;;;;3.67;1.70;;;;;;;17.01;100.00;99302.31;15274898;19;20014;-48
2023/06/24 08:41:02;;;;;;;3.17;1.30;;;;;;;17.24;100.00;99303.13;15278064;19;20014;-46
2023/06/24 08:52:55;;;;;;;2.83;1.50;;;;;;;17.36;100.00;99283.63;15279556;19;20467;-49
2023/06/24 08:58:22;;;;;;;1.90;1.33;;;;;;;17.43;100.00;99276.44;15275633;19;20015;-51
2023/06/24 09:03:47;;;;;;;1.85;1.30;;;;;;;17.58;100.00;99271.00;15274228;19;20483;-47
2023/06/24 09:09:11;;;;;;;2.03;1.20;;;;;;;17.69;100.00;99262.38;15275184;19;20021;-49
2023/06/24 09:14:40;;;;;;;1.33;1.08;;;;;;;17.80;100.00;99262.94;15275824;19;20018;-49
2023/06/24 09:20:14;;;;;;;1.88;1.10;;;;;;;18.03;100.00;99262.88;15274196;19;20023;-49
2023/06/24 09:25:39;;;;;;;1.05;1.00;;;;;;;18.03;100.00;99260.16;15269183;19;20022;-50
2023/06/24 09:31:16;;;;;;;4.57;1.13;;;;;;;18.09;100.00;99262.09;15278743;19;20024;-49
2023/06/24 09:36:46;;;;;;;1.77;1.00;;;;;;;18.25;100.00;99258.31;15273646;19;20018;-52
2023/06/24 09:42:13;;;;;;;1.15;0.90;;;;;;;18.53;100.00;99241.25;15275205;19;20472;-50
2023/06/24 09:47:41;;;;;;;2.22;0.80;;;;;;;18.72;100.00;99236.16;15266624;19;20825;-46
2023/06/24 09:53:07;;;;;;;2.30;1.10;;;;;;;18.87;100.00;99247.06;15273539;19;20475;-48
2023/06/24 09:58:35;;;;;;;1.40;0.90;;;;;;;18.92;100.00;99241.84;15271208;19;20038;-51
2023/06/24 10:04:03;;;;;;;1.17;0.90;;;;;;;19.09;100.00;99243.31;15272055;19;20019;-48
2023/06/24 10:09:29;;;;;;;1.42;0.98;;;;;;;19.31;100.00;99240.53;15270990;19;20070;-46
2023/06/24 10:14:54;;;;;;;1.50;1.00;;;;;;;19.43;100.00;99234.53;15272400;19;20304;-48
2023/06/24 10:20:29;;;;;;;2.58;0.88;;;;;;;19.54;100.00;99226.59;15267975;19;20035;-49
2023/06/24 10:25:57;;;;;;;2.67;0.90;;;;;;;19.78;100.00;99226.34;15267768;19;20018;-47
2023/06/24 10:31:22;;;;;;;1.35;1.00;;;;;;;19.93;100.00;99229.81;15274090;19;20009;-51
2023/06/24 10:36:49;;;;;;;3.53;1.10;;;;;;;19.97;100.00;99222.06;15270422;19;20025;-48
2023/06/24 10:42:41;;;;;;;1.33;0.93;;;;;;;20.06;100.00;99225.44;15270373;19;20479;-49
2023/06/24 10:48:05;;;;;;;1.10;0.80;;;;;;;20.24;100.00;99223.00;15267536;19;20017;-47
2023/06/24 10:53:33;;;;;;;1.10;0.80;;;;;;;20.26;100.00;99226.38;15266024;19;20015;-50
2023/06/24 10:59:05;;;;;;;3.08;0.98;;;;;;;20.38;100.00;99210.22;15266711;19;20353;-48
2023/06/24 11:04:30;;;;;;;1.20;0.80;;;;;;;20.47;100.00;99203.47;15267699;19;20017;-48
2023/06/24 11:10:07;;;;;;;1.98;1.00;;;;;;;20.68;100.00;99193.44;15267060;19;20693;-44
2023/06/24 11:15:32;;;;;;;2.42;0.88;;;;;;;20.97;100.00;99190.53;15265995;19;20014;-46
2023/06/24 11:20:58;;;;;;;1.30;0.80;;;;;;;21.05;100.00;99193.06;15266282;19;20021;-45
2023/06/24 11:26:25;;;;;;;2.63;1.00;;;;;;;21.06;100.00;99178.31;15261723;19;20021;-47
2023/06/24 11:31:50;;;;;;;4.15;1.08;;;;;;;21.34;100.00;99186.31;15273282;19;20007;-48
2023/06/24 11:37:16;;;;;;;2.72;1.00;;;;;;;21.36;100.00;99178.72;15268668;19;20021;-47
2023/06/24 11:42:47;;;;;;;1.10;1.00;;;;;;;21.51;100.00;99181.22;15265603;19;20006;-46
2023/06/24 11:48:13;;;;;;;1.45;0.80;;;;;;;21.61;100.00;99174.47;15260626;19;20018;-45
2023/06/24 11:53:50;;;;;;;1.58;0.90;;;;;;;21.65;100.00;99164.75;15264785;19;20042;-46
2023/06/24 11:59:29;;;;;;;1.10;1.00;;;;;;;21.76;100.00;99174.19;15259829;19;20021;-47
2023/06/24 12:04:54;;;;;;;1.15;0.95;;;;;;;21.88;100.00;99168.91;15275955;19;20017;-45
2023/06/24 12:10:19;;;;;;;1.67;0.90;;;;;;;21.97;100.00;99167.59;15281650;19;20074;-48
2023/06/24 12:15:46;;;;;;;2.05;0.90;;;;;;;22.21;100.00;99157.78;15279622;19;20014;-46
2023/06/24 12:21:17;;;;;;;3.53;0.90;;;;;;;22.28;100.00;99158.56;15276140;19;20054;-50
2023/06/24 12:26:42;;;;;;;3.03;0.90;;;;;;;22.41;100.00;99154.94;15272147;19;20031;-51
2023/06/24 12:32:10;;;;;;;2.00;1.10;;;;;;;22.46;100.00;99148.81;15279580;19;20003;-52
2023/06/24 12:37:35;;;;;;;0.98;0.80;;;;;;;22.55;100.00;99150.22;15276897;19;20085;-48
2023/06/24 12:43:01;;;;;;;2.03;0.80;;;;;;;22.70;100.00;99149.03;15277815;19;20075;-47
2023/06/24 12:48:29;;;;;;;2.35;0.70;;;;;;;22.87;100.00;99146.59;15274790;19;20014;-54
2023/06/24 12:53:55;;;;;;;2.53;0.80;;;;;;;23.05;100.00;99143.88;15280226;19;20010;-46
2023/06/24 12:59:20;;;;;;;1.45;1.00;;;;;;;23.20;100.00;99137.25;15276535;19;20034;-48
2023/06/24 13:04:47;;;;;;;0.93;0.90;;;;;;;23.30;100.00;99131.19;15280256;19;20010;-47
2023/06/24 13:10:13;;;;;;;0.93;0.80;;;;;;;23.39;100.00;99132.59;15278607;19;20491;-45
2023/06/24 13:15:38;;;;;;;0.93;0.80;;;;;;;23.68;100.00;99133.75;15276489;19;20033;-48
2023/06/24 13:21:13;;;;;;;1.48;0.90;;;;;;;23.78;100.00;99133.19;15271569;19;20014;-47
2023/06/24 13:26:39;;;;;;;1.88;0.90;;;;;;;23.92;100.00;99139.41;15269034;19;20015;-47
2023/06/24 13:32:05;;;;;;;4.15;0.73;;;;;;;24.28;100.00;99126.66;15271659;19;20483;-46
2023/06/24 13:37:34;;;;;;;1.38;0.80;;;;;;;24.52;100.00;99121.19;15274391;19;20708;-48
2023/06/24 13:42:53;;;;;;;1.08;0.82;;;;;;;24.70;100.00;99117.56;15275416;19;20482;-49
2023/06/24 13:48:19;;;;;;;3.40;0.80;;;;;;;25.24;100.00;99116.63;15276120;19;20034;-48
2023/06/24 13:53:46;;;;;;;1.35;0.80;;;;;;;25.27;92.89;99115.31;15275168;19;20021;-51
2023/06/24 13:59:11;;;;;;;0.68;0.68;;;;;;;25.28;100.00;99111.47;15272911;19;20027;-53
2023/06/24 14:04:37;;;;;;;1.77;0.70;;;;;;;25.48;85.29;99103.69;15270234;19;20090;-50
2023/06/24 14:10:04;;;;;;;1.02;0.90;;;;;;;25.41;91.14;99100.22;15271479;19;20015;-52
2023/06/24 14:15:29;;;;;;;1.27;0.77;;;;;;;25.82;93.18;99098.31;15273999;19;20019;-53
2023/06/24 14:20:53;;;;;;;3.08;0.90;;;;;;;25.83;100.00;99105.50;15275498;19;20018;-54
2023/06/24 14:26:20;;;;;;;1.10;0.80;;;;;;;26.52;87.97;99086.38;15268891;19;20010;-52
2023/06/24 14:31:45;;;;;;;1.35;0.70;;;;;;;26.66;100.00;99082.19;15275021;19;20013;-50
2023/06/24 14:37:10;;;;;;;1.58;0.88;;;;;;;26.44;70.17;99088.47;15268250;19;20021;-51
2023/06/24 14:42:37;;;;;;;0.85;0.65;;;;;;;26.68;96.83;99068.97;15274610;19;20023;-51
2023/06/24 14:48:02;;;;;;;1.27;0.80;;;;;;;26.42;84.71;99076.00;15272550;19;20527;-52
2023/06/24 14:53:29;;;;;;;2.05;0.80;;;;;;;26.91;98.38;99069.91;15271626;19;20294;-53
2023/06/24 14:58:57;;;;;;;4.40;0.80;;;;;;;27.51;90.00;99059.13;15267521;19;20007;-52
2023/06/24 15:04:22;;;;;;;2.63;0.60;;;;;;;28.07;96.65;99061.72;15269201;19;20037;-53
2023/06/24 15:09:47;;;;;;;0.90;0.80;;;;;;;27.92;71.65;99054.09;15264481;19;20010;-53
2023/06/24 15:15:15;;;;;;;1.00;0.70;;;;;;;27.69;80.69;99052.44;15270751;19;20018;-53
2023/06/24 15:20:42;;;;;;;0.80;0.70;;;;;;;27.84;71.61;99046.22;15269524;19;20466;-53
2023/06/24 15:26:06;;;;;;;1.67;0.60;;;;;;;27.83;91.32;99045.41;15268633;19;20010;-52
2023/06/24 15:31:34;;;;;;;1.58;0.70;;;;;;;28.32;76.24;99040.09;15269833;19;20011;-53
2023/06/24 15:36:59;;;;;;;1.63;0.70;;;;;;;28.75;91.96;99036.31;15277423;19;20022;-55
2023/06/24 15:42:24;;;;;;;1.05;0.90;;;;;;;28.91;70.97;99034.47;15282130;19;20014;-56
2023/06/24 15:47:51;;;;;;;2.67;0.80;;;;;;;29.16;79.26;99021.88;15282561;19;20014;-53
2023/06/24 15:53:17;;;;;;;0.90;0.65;;;;;;;28.71;62.65;99021.28;15284982;19;20034;-56
2023/06/24 15:58:41;;;;;;;1.35;0.60;;;;;;;28.49;77.25;99023.31;15278439;19;20028;-57
2023/06/24 16:04:08;;;;;;;1.98;0.65;;;;;;;28.14;60.87;99022.75;15281694;19;20003;-57
2023/06/24 16:09:33;;;;;;;2.30;0.68;;;;;;;28.14;76.59;99006.97;15278164;19;20482;-57
2023/06/24 16:14:58;;;;;;;0.98;0.70;;;;;;;28.30;70.35;99013.47;15280161;19;20021;-56
2023/06/24 16:20:32;;;;;;;2.15;0.60;;;;;;;28.43;65.86;99014.13;15281214;19;20031;-56
2023/06/24 16:25:57;;;;;;;1.08;0.70;;;;;;;28.94;70.61;99004.53;15277899;19;20007;-56
2023/06/24 16:31:21;;;;;;;2.47;0.70;;;;;;;29.25;81.70;99002.75;15281983;19;20053;-51
2023/06/24 16:36:48;;;;;;;1.30;0.80;;;;;;;29.21;67.20;99001.63;15279213;19;20035;-51
2023/06/24 16:42:14;;;;;;;0.77;0.52;;;;;;;28.88;63.46;99010.03;15280781;19;20768;-53
2023/06/24 16:47:39;;;;;;;0.85;0.65;;;;;;;28.21;65.36;98992.06;15267643;19;20482;-53
2023/06/24 16:53:06;;;;;;;0.80;0.63;;;;;;;28.53;69.67;98997.56;15280986;19;20090;-53
2023/06/24 16:58:31;;;;;;;1.02;0.60;;;;;;;28.34;62.64;98991.63;15277999;19;20683;-53
2023/06/24 17:03:55;;;;;;;1.55;0.70;;;;;;;28.36;70.69;98986.63;15277717;19;20006;-54
2023/06/24 17:09:23;;;;;;;2.55;0.63;;;;;;;28.12;68.60;98991.72;15274539;19;20477;-58
2023/06/24 17:14:47;;;;;;;1.65;0.98;;;;;;;27.98;76.76;98985.75;15277560;19;20014;-57
2023/06/24 17:20:19;;;;;;;1.58;0.70;;;;;;;28.09;68.39;98979.25;15270532;19;20030;-57
2023/06/24 17:25:48;;;;;;;3.03;0.70;;;;;;;28.20;70.80;98971.84;15275166;19;20014;-52
2023/06/24 17:31:12;;;;;;;3.70;0.77;;;;;;;28.19;78.75;98975.69;15276473;19;20028;-54
2023/06/24 17:36:37;;;;;;;1.42;0.60;;;;;;;28.11;68.23;98976.19;15273946;19;20078;-53
2023/06/24 17:42:04;;;;;;;1.63;0.73;;;;;;;28.09;76.32;98986.69;15276054;19;20479;-57
2023/06/24 17:47:30;;;;;;;0.93;0.70;;;;;;;28.02;73.12;98980.50;15272788;19;20023;-57
2023/06/24 17:52:54;;;;;;;1.17;0.90;;;;;;;28.03;80.90;98976.66;15269475;19;20010;-57
2023/06/24 17:58:23;;;;;;;1.15;0.73;;;;;;;27.92;74.54;98971.00;15270333;19;20022;-54
2023/06/24 18:03:49;;;;;;;3.45;0.80;;;;;;;27.77;84.44;98971.69;15273879;19;20497;-54
2023/06/24 18:09:16;;;;;;;1.08;0.80;;;;;;;27.50;77.56;98968.91;15269181;19;21093;-54
2023/06/24 18:14:43;;;;;;;1.27;0.75;;;;;;;27.23;90.28;98981.56;15273071;19;20014;-55
2023/06/24 18:20:10;;;;;;;1.33;0.85;;;;;;;26.88;91.16;98968.09;15271163;19;20074;-54
2023/06/24 18:25:35;;;;;;;4.40;1.00;;;;;;;26.56;99.21;98965.97;15271608;19;20010;-48
2023/06/24 18:31:09;;;;;;;1.90;0.80;;;;;;;26.25;94.89;98976.53;15247382;19;20021;-51
2023/06/24 18:36:34;;;;;;;0.98;0.90;;;;;;;25.91;100.00;98965.44;15271924;19;20091;-52
2023/06/24 18:41:58;;;;;;;1.92;0.80;;;;;;;25.62;100.00;98969.06;15271233;19;20354;-53
2023/06/24 18:47:26;;;;;;;1.08;0.90;;;;;;;25.26;100.00;98967.47;15267220;19;20018;-54
2023/06/24 18:52:50;;;;;;;1.55;0.90;;;;;;;24.93;100.00;98978.94;15266408;19;20017;-51
2023/06/24 18:58:15;;;;;;;2.03;0.90;;;;;;;24.61;100.00;98979.31;15270582;19;20017;-53
2023/06/24 19:03:43;;;;;;;1.48;0.90;;;;;;;24.40;100.00;98968.88;15271295;19;20027;-54
2023/06/24 19:09:08;;;;;;;2.50;1.00;;;;;;;24.12;100.00;98970.41;15243422;19;20025;-50
2023/06/24 19:14:32;;;;;;;2.45;0.82;;;;;;;23.85;100.00;98957.88;15269059;19;20026;-50
2023/06/24 19:20:00;;;;;;;0.90;0.80;;;;;;;23.63;100.00;98959.47;15265615;19;20097;-50
2023/06/24 19:25:25;;;;;;;0.95;0.80;;;;;;;23.38;100.00;98960.44;15264928;19;20025;-53
2023/06/24 19:31:00;;;;;;;1.60;1.00;;;;;;;23.15;100.00;98964.72;15266658;19;20019;-52
2023/06/24 19:36:28;;;;;;;3.85;1.10;;;;;;;22.93;100.00;98969.84;15267487;19;20473;-51
2023/06/24 19:41:52;;;;;;;1.00;0.90;;;;;;;22.73;100.00;98973.66;15268932;19;20050;-51
2023/06/24 19:47:19;;;;;;;2.53;1.00;;;;;;;22.44;100.00;98978.78;15266204;19;20086;-51
2023/06/24 19:52:46;;;;;;;2.28;1.00;;;;;;;22.30;100.00;98974.44;15265956;19;20029;-53
2023/06/24 19:58:12;;;;;;;2.35;1.02;;;;;;;22.09;100.00;98978.44;15262716;19;20082;-49
2023/06/24 20:03:36;;;;;;;1.02;0.93;;;;;;;21.88;100.00;98972.22;15266277;19;20018;-53
2023/06/24 20:09:05;;;;;;;2.35;1.10;;;;;;;21.63;100.00;98970.31;15262740;19;20027;-49
2023/06/24 20:14:29;;;;;;;1.60;1.10;;;;;;;21.43;100.00;98977.75;15266059;19;20014;-50
2023/06/24 20:19:54;;;;;;;1.45;1.23;;;;;;;21.20;100.00;98977.22;15260029;19;20019;-48
2023/06/24 20:25:21;;;;;;;2.50;1.30;;;;;;;21.00;100.00;98973.69;15275943;19;20015;-52
2023/06/24 20:30:47;;;;;;;2.13;1.30;;;;;;;20.77;100.00;98972.28;15270028;19;20378;-53
2023/06/24 20:36:12;;;;;;;1.15;1.10;;;;;;;20.59;100.00;98973.78;15279349;19;20014;-50
2023/06/24 20:41:40;;;;;;;2.33;1.40;;;;;;;20.42;100.00;98965.19;15280481;19;20475;-53
2023/06/24 20:47:04;;;;;;;2.70;1.42;;;;;;;20.27;100.00;98965.41;15274615;19;20020;-48
2023/06/24 20:52:29;;;;;;;2.65;1.40;;;;;;;20.09;100.00;98959.72;15275802;19;20020;-53
2023/06/24 20:57:56;;;;;;;2.30;1.58;;;;;;;19.91;100.00;98957.59;15271825;19;20015;-50
2023/06/24 21:03:21;;;;;;;5.57;1.70;;;;;;;19.68;100.00;98962.38;15272340;19;20346;-53
2023/06/24 21:08:46;;;;;;;3.53;1.50;;;;;;;19.55;100.00;98954.16;15270767;19;20018;-50
2023/06/24 21:14:14;;;;;;;1.50;1.40;;;;;;;19.41;100.00;98953.25;15273617;19;20018;-49
2023/06/24 21:19:38;;;;;;;1.95;1.60;;;;;;;19.30;100.00;98948.38;15271956;19;20029;-58
2023/06/24 21:25:03;;;;;;;1.70;1.58;;;;;;;19.13;100.00;98964.28;15265321;19;20036;-56
2023/06/24 21:30:38;;;;;;;4.20;1.90;;;;;;;19.05;100.00;98963.44;15271363;19;20510;-50
2023/06/24 21:36:04;;;;;;;4.53;1.88;;;;;;;18.90;100.00;98958.09;15266960;19;20098;-49
2023/06/24 21:41:30;;;;;;;2.05;1.73;;;;;;;18.80;100.00;98952.16;15272724;19;20627;-55
2023/06/24 21:46:58;;;;;;;2.58;1.80;;;;;;;18.70;100.00;98955.25;15271542;19;20028;-53
2023/06/24 21:52:23;;;;;;;3.05;1.77;;;;;;;18.61;100.00;98961.91;15273170;19;20029;-49
2023/06/24 21:57:48;;;;;;;3.00;1.70;;;;;;;18.56;100.00;98967.97;15271896;19;20019;-50
2023/06/24 22:03:15;;;;;;;2.60;1.80;;;;;;;18.54;100.00;98967.31;15273441;19;20021;-55
2023/06/24 22:08:40;;;;;;;2.65;1.80;;;;;;;18.50;100.00;98965.19;15264227;19;20498;-54
2023/06/24 22:14:04;;;;;;;2.47;1.70;;;;;;;18.43;100.00;98965.97;15270266;19;20910;-51
2023/06/24 22:19:32;;;;;;;1.88;1.45;;;;;;;18.38;100.00;98971.22;15270545;19;20053;-51
2023/06/24 22:24:57;;;;;;;2.35;1.60;;;;;;;18.34;100.00;98975.38;15270632;19;20094;-50
2023/06/24 22:30:30;;;;;;;2.65;1.70;;;;;;;18.26;100.00;98973.63;15266775;19;20015;-54
2023/06/24 22:35:52;;;;;;;1.50;1.40;;;;;;;18.21;100.00;98975.25;15269980;19;20010;-53
2023/06/24 22:41:17;;;;;;;1.73;1.40;;;;;;;18.17;100.00;98972.91;15264749;19;20031;-51
2023/06/24 22:46:41;;;;;;;2.65;1.40;;;;;;;18.12;100.00;98974.53;15265511;19;20031;-51
2023/06/24 22:52:09;;;;;;;1.58;1.40;;;;;;;18.05;100.00;98968.19;15268025;19;20015;-54
2023/06/24 22:57:34;;;;;;;1.92;1.50;;;;;;;17.99;100.00;98973.38;15268497;19;20020;-51
2023/06/24 23:03:00;;;;;;;2.42;1.50;;;;;;;17.90;100.00;98979.16;15269871;19;20014;-51
2023/06/24 23:08:28;;;;;;;1.65;1.55;;;;;;;17.82;100.00;98972.78;15268438;19;20051;-52
2023/06/24 23:13:54;;;;;;;1.85;1.52;;;;;;;17.76;100.00;98973.56;15265402;19;20011;-50
2023/06/24 23:19:19;;;;;;;2.17;1.52;;;;;;;17.71;100.00;98968.72;15263332;19;20018;-51
2023/06/24 23:24:52;;;;;;;2.85;1.60;;;;;;;17.69;100.00;98969.94;15267246;19;20010;-53
2023/06/24 23:30:28;;;;;;;3.00;1.80;;;;;;;17.66;100.00;98968.44;15263317;19;20086;-54
2023/06/24 23:35:54;;;;;;;3.40;1.50;;;;;;;17.64;100.00;98965.06;15266192;19;20011;-56
2023/06/24 23:41:22;;;;;;;2.15;1.67;;;;;;;17.60;100.00;98973.81;15266553;19;20018;-52
2023/06/24 23:46:47;;;;;;;3.25;1.88;;;;;;;17.52;100.00;98962.00;15261655;19;20014;-50
2023/06/24 23:52:14;;;;;;;3.22;1.85;;;;;;;17.47;100.00;98963.63;15267345;19;20022;-49
2023/06/24 23:57:42;;;;;;;2.47;1.77;;;;;;;17.41;100.00;98960.63;15273068;19;20011;-49
